Time;durP1;ratioP1;P1;durP2;ratioP2;P2;SDS_P1;SDS_P2;PMS_P1;PMS_P2;Temp;Humidity;BMP_temperature;BMP_pressure;BME280_temperature;BME280_humidity;BME280_pressure;Samples;Min_cycle;Max_cycle;Signal;HPM_P1;HPM_P2
2022/07/23 00:53:46;;;;;;;4.50;3.50;;;12.00;99.90;;;;;;6227182;22;20024;-77
2022/07/23 00:56:12;;;;;;;5.88;3.83;;;11.90;99.90;;;;;;6243070;23;20012;-77
2022/07/23 00:58:41;;;;;;;4.28;3.33;;;11.90;99.90;;;;;;6241424;23;20034;-77
2022/07/23 01:01:07;;;;;;;4.78;3.33;;;11.80;99.90;;;;;;6242863;23;20034;-76
2022/07/23 01:03:33;;;;;;;4.68;3.50;;;11.80;99.90;;;;;;6234160;23;20017;-77
2022/07/23 01:05:59;;;;;;;5.10;4.50;;;11.70;99.90;;;;;;6211776;23;20111;-77
2022/07/23 02:18:20;;;;;;;6.88;4.25;;;10.90;99.90;;;;;;6224244;22;20042;-84
2022/07/23 02:20:45;;;;;;;6.00;4.57;;;10.90;99.90;;;;;;6217683;23;20012;-85
2022/07/23 02:23:11;;;;;;;4.85;4.18;;;10.90;99.90;;;;;;6244264;23;20087;-84
2022/07/23 02:25:36;;;;;;;4.95;3.90;;;10.90;99.90;;;;;;6218917;23;20398;-84
2022/07/23 02:28:02;;;;;;;4.75;4.13;;;10.80;99.90;;;;;;6213881;23;20004;-84
2022/07/23 02:30:28;;;;;;;3.78;3.22;;;10.80;99.90;;;;;;6214453;23;20376;-84
2022/07/23 02:32:54;;;;;;;4.88;3.40;;;10.70;99.90;;;;;;6188641;23;20020;-84
2022/07/23 02:35:20;;;;;;;4.38;3.63;;;10.80;99.90;;;;;;6188576;23;20066;-84
2022/07/23 02:37:45;;;;;;;5.97;3.92;;;10.80;99.90;;;;;;6188413;23;20012;-84
2022/07/23 02:40:11;;;;;;;4.80;3.72;;;10.80;99.90;;;;;;6189306;23;20458;-84
2022/07/23 02:42:37;;;;;;;5.45;4.30;;;10.90;99.90;;;;;;6188820;23;20004;-84
2022/07/23 02:45:06;;;;;;;7.40;4.88;;;10.90;99.90;;;;;;6188827;23;20416;-84
2022/07/23 02:47:32;;;;;;;6.82;5.28;;;10.90;99.90;;;;;;6213452;23;20004;-83
2022/07/23 02:49:57;;;;;;;6.10;5.07;;;10.90;99.90;;;;;;6188883;23;20008;-84
2022/07/23 02:52:23;;;;;;;5.78;4.45;;;11.00;99.90;;;;;;6189005;23;20468;-84
2022/07/23 02:54:48;;;;;;;6.50;4.20;;;11.00;99.90;;;;;;6189128;23;20012;-84
2022/07/23 02:57:14;;;;;;;4.97;4.05;;;11.00;99.90;;;;;;6188838;23;20024;-84
2022/07/23 02:59:40;;;;;;;5.10;3.45;;;10.90;99.90;;;;;;6188070;23;20013;-83
2022/07/23 03:02:05;;;;;;;4.78;3.88;;;10.90;99.90;;;;;;6188002;23;20009;-83
2022/07/23 03:04:31;;;;;;;6.75;3.53;;;10.90;99.90;;;;;;6188814;23;20070;-84
2022/07/23 03:06:56;;;;;;;4.75;3.40;;;10.80;99.90;;;;;;6188163;23;20023;-84
2022/07/23 03:09:22;;;;;;;7.35;3.70;;;10.80;99.90;;;;;;6187873;23;20483;-86
2022/07/23 03:11:48;;;;;;;3.70;3.20;;;10.80;99.90;;;;;;6187462;23;20013;-87
2022/07/23 03:14:13;;;;;;;3.88;3.30;;;10.70;99.90;;;;;;6213397;23;20076;-86
2022/07/23 03:16:39;;;;;;;3.58;3.05;;;10.70;99.90;;;;;;6188346;23;20020;-87
2022/07/23 03:19:05;;;;;;;4.25;3.22;;;10.60;99.90;;;;;;6187993;23;20399;-88
2022/07/23 03:21:31;;;;;;;3.20;2.67;;;10.60;99.90;;;;;;6188815;23;20009;-87
2022/07/23 03:23:56;;;;;;;5.40;3.45;;;10.60;99.90;;;;;;6213824;23;20483;-87
2022/07/23 03:26:25;;;;;;;3.60;3.10;;;10.60;99.90;;;;;;6188549;23;20005;-87
2022/07/23 03:28:50;;;;;;;4.53;3.05;;;10.50;99.90;;;;;;6188405;23;20005;-87
2022/07/23 03:31:19;;;;;;;5.22;3.10;;;10.50;99.90;;;;;;6189406;23;20377;-86
2022/07/23 03:33:44;;;;;;;3.95;3.33;;;10.50;99.90;;;;;;6188751;23;20028;-87
2022/07/23 03:36:10;;;;;;;8.35;3.33;;;10.40;99.90;;;;;;6188523;23;20149;-87
2022/07/23 03:38:35;;;;;;;4.13;3.45;;;10.40;99.90;;;;;;6188441;23;20349;-87
2022/07/23 03:41:01;;;;;;;4.55;3.80;;;10.40;99.90;;;;;;6188100;23;20012;-87
2022/07/23 03:43:26;;;;;;;5.22;3.38;;;10.30;99.90;;;;;;6188551;23;20404;-87
2022/07/23 03:45:52;;;;;;;3.88;3.35;;;10.30;99.90;;;;;;6188637;23;20032;-86
2022/07/23 03:48:18;;;;;;;4.20;3.33;;;10.20;99.90;;;;;;6188354;23;20083;-88
2022/07/23 03:50:43;;;;;;;5.05;3.08;;;10.30;99.90;;;;;;6188125;23;20059;-87
2022/07/23 03:53:09;;;;;;;4.40;3.50;;;10.20;99.90;;;;;;6188566;23;20385;-87
2022/07/23 03:55:35;;;;;;;4.75;3.40;;;10.30;99.90;;;;;;6213557;23;20070;-87
2022/07/23 03:58:00;;;;;;;4.55;3.45;;;10.20;99.90;;;;;;6213075;23;20079;-87
2022/07/23 04:00:26;;;;;;;4.35;3.05;;;10.20;99.90;;;;;;6187965;23;20069;-87
2022/07/23 04:02:52;;;;;;;3.88;3.22;;;10.20;99.90;;;;;;6188253;23;20013;-86
2022/07/23 04:05:17;;;;;;;4.13;2.95;;;10.10;99.90;;;;;;6188587;23;20009;-87
2022/07/23 04:07:43;;;;;;;3.97;2.90;;;10.10;99.90;;;;;;6187805;23;20012;-87
2022/07/23 04:10:09;;;;;;;5.25;3.42;;;10.10;99.90;;;;;;6188479;23;20009;-88
2022/07/23 04:12:35;;;;;;;3.97;3.38;;;10.20;99.90;;;;;;6188330;23;20453;-87
2022/07/23 04:15:01;;;;;;;4.63;3.45;;;10.20;99.90;;;;;;6187473;23;20023;-88
2022/07/23 04:17:26;;;;;;;6.13;4.45;;;10.10;99.90;;;;;;6187538;23;20013;-88
2022/07/23 04:19:52;;;;;;;5.45;4.03;;;10.20;99.90;;;;;;6188219;23;20008;-87
2022/07/23 04:22:17;;;;;;;6.20;4.47;;;10.20;99.90;;;;;;6188225;23;20009;-87
2022/07/23 04:24:43;;;;;;;6.95;4.72;;;10.20;99.90;;;;;;6188151;23;20491;-87
2022/07/23 04:27:09;;;;;;;9.10;5.82;;;10.20;99.90;;;;;;6187832;23;20013;-87
2022/07/23 04:29:34;;;;;;;12.00;7.93;;;10.30;99.90;;;;;;6212681;23;20088;-87
2022/07/23 04:32:01;;;;;;;10.68;7.47;;;10.30;99.90;;;;;;6188221;23;20067;-87
2022/07/23 04:34:26;;;;;;;10.65;6.72;;;10.40;99.90;;;;;;6188082;23;20015;-87
2022/07/23 04:36:53;;;;;;;12.68;7.57;;;10.40;99.90;;;;;;6213075;23;20047;-87
2022/07/23 04:39:19;;;;;;;10.10;7.30;;;10.40;99.90;;;;;;6187963;23;20023;-87
2022/07/23 04:41:45;;;;;;;14.02;7.82;;;10.50;99.90;;;;;;6187942;23;20013;-87
2022/07/23 04:44:10;;;;;;;11.38;8.25;;;10.60;99.90;;;;;;6212736;23;20016;-87
2022/07/23 04:46:36;;;;;;;11.05;8.50;;;10.70;99.90;;;;;;6187494;23;20476;-87
2022/07/23 04:49:02;;;;;;;11.32;7.95;;;10.80;99.90;;;;;;6188854;23;20088;-88
2022/07/23 04:51:28;;;;;;;10.27;7.25;;;11.00;99.90;;;;;;6188250;23;20369;-87
2022/07/23 04:53:54;;;;;;;9.18;6.90;;;11.20;99.90;;;;;;6212729;23;20026;-88
2022/07/23 04:56:20;;;;;;;8.63;6.97;;;11.40;99.90;;;;;;6187918;23;20012;-88
2022/07/23 04:58:46;;;;;;;9.02;6.63;;;11.70;99.90;;;;;;6187773;23;20070;-88
2022/07/23 05:01:11;;;;;;;7.88;6.05;;;11.90;99.90;;;;;;6187725;23;20013;-88
2022/07/23 05:03:37;;;;;;;11.85;6.85;;;12.20;99.90;;;;;;6188030;23;20019;-88
2022/07/23 05:06:03;;;;;;;7.78;6.03;;;12.40;99.90;;;;;;6188546;23;20012;-88
2022/07/23 05:08:29;;;;;;;8.60;6.00;;;12.70;99.90;;;;;;6187280;23;20005;-88
2022/07/23 05:10:54;;;;;;;7.53;5.60;;;12.90;99.90;;;;;;6187594;23;20066;-88
2022/07/23 05:13:20;;;;;;;7.35;5.65;;;13.10;99.90;;;;;;6187751;23;20009;-88
2022/07/23 05:15:46;;;;;;;6.88;5.38;;;13.30;99.90;;;;;;6212885;23;20008;-88
2022/07/23 05:18:12;;;;;;;7.13;5.22;;;13.40;99.90;;;;;;6212501;23;20019;-88
2022/07/23 05:20:38;;;;;;;6.20;4.93;;;13.60;99.90;;;;;;6187297;23;20016;-88
2022/07/23 05:23:04;;;;;;;5.53;4.78;;;13.80;99.90;;;;;;6187207;23;20095;-88
2022/07/23 05:25:29;;;;;;;4.97;4.47;;;13.90;99.90;;;;;;6212740;23;20008;-88
2022/07/23 05:27:55;;;;;;;7.82;4.60;;;14.10;99.90;;;;;;6187295;23;20556;-88
2022/07/23 05:30:21;;;;;;;6.07;4.65;;;14.20;99.90;;;;;;6212585;23;20004;-88
2022/07/23 05:32:46;;;;;;;8.38;5.13;;;14.30;99.90;;;;;;6187685;23;20023;-88
2022/07/23 05:35:12;;;;;;;5.18;4.68;;;14.40;99.90;;;;;;6186744;23;20023;-88
2022/07/23 05:37:38;;;;;;;5.63;5.00;;;14.60;99.90;;;;;;6187367;23;20020;-88
2022/07/23 05:40:07;;;;;;;6.32;4.95;;;14.80;99.90;;;;;;6212695;23;20058;-88
2022/07/23 05:42:33;;;;;;;6.25;4.50;;;14.90;99.90;;;;;;6187568;23;20337;-88
2022/07/23 05:44:59;;;;;;;7.00;4.88;;;15.00;99.90;;;;;;6212501;23;20040;-87
2022/07/23 05:47:24;;;;;;;7.13;4.35;;;15.20;99.90;;;;;;6187143;23;20457;-88
2022/07/23 05:49:50;;;;;;;5.28;4.22;;;15.30;99.90;;;;;;6187158;23;20017;-88
2022/07/23 05:52:16;;;;;;;6.20;4.15;;;15.40;99.90;;;;;;6187657;23;20019;-88
2022/07/23 05:54:41;;;;;;;6.72;4.70;;;15.50;99.90;;;;;;6187581;23;20019;-89
2022/07/23 05:57:07;;;;;;;7.18;4.75;;;15.70;99.90;;;;;;6187338;23;20061;-89
2022/07/23 05:59:32;;;;;;;6.60;5.00;;;15.80;99.90;;;;;;6186515;23;20103;-88
2022/07/23 06:01:58;;;;;;;6.65;5.85;;;15.80;99.90;;;;;;6186890;23;20515;-88
2022/07/23 06:04:24;;;;;;;6.05;5.18;;;15.60;99.90;;;;;;6187485;23;20009;-88
2022/07/23 06:06:49;;;;;;;5.40;4.88;;;15.60;99.90;;;;;;6187483;23;20062;-88
2022/07/23 06:09:15;;;;;;;7.22;4.65;;;15.40;99.90;;;;;;6187476;23;20016;-89
2022/07/23 06:11:41;;;;;;;6.63;4.90;;;15.40;99.90;;;;;;6187442;23;20016;-88
2022/07/23 06:14:07;;;;;;;6.25;4.60;;;15.30;99.90;;;;;;6187096;23;20051;-88
2022/07/23 06:16:32;;;;;;;8.32;4.57;;;15.20;99.90;;;;;;6187386;23;20012;-88
2022/07/23 06:18:58;;;;;;;5.20;4.55;;;15.20;99.90;;;;;;6211960;23;20008;-88
2022/07/23 06:21:23;;;;;;;6.75;4.43;;;15.10;99.90;;;;;;6187262;23;20074;-88
2022/07/23 06:23:49;;;;;;;6.03;4.57;;;15.10;99.90;;;;;;6212380;23;20017;-89
2022/07/23 06:26:15;;;;;;;5.80;4.78;;;15.10;99.90;;;;;;6212378;23;20009;-88
2022/07/23 06:28:40;;;;;;;5.25;4.10;;;15.10;99.90;;;;;;6186287;23;20048;-88
2022/07/23 06:31:06;;;;;;;4.90;4.00;;;15.00;99.90;;;;;;6212363;23;20044;-88
2022/07/23 06:33:31;;;;;;;5.63;4.18;;;15.00;99.90;;;;;;6187432;23;20020;-88
2022/07/23 06:35:57;;;;;;;4.88;3.80;;;15.00;99.90;;;;;;6187512;23;20013;-87
2022/07/23 06:38:23;;;;;;;7.43;4.45;;;15.00;99.90;;;;;;6186882;23;20055;-88
2022/07/23 06:40:48;;;;;;;5.32;4.22;;;15.00;99.90;;;;;;6186864;23;20103;-88
2022/07/23 06:43:16;;;;;;;4.38;3.30;;;15.00;99.90;;;;;;6187869;23;20024;-88
2022/07/23 06:45:41;;;;;;;7.10;3.72;;;15.00;99.90;;;;;;6189972;23;20013;-87
2022/07/23 06:48:07;;;;;;;4.78;3.00;;;15.00;99.90;;;;;;6188741;23;20028;-88
2022/07/23 06:50:33;;;;;;;5.18;2.70;;;15.00;99.90;;;;;;6189222;23;20051;-87
2022/07/23 06:52:58;;;;;;;3.30;2.70;;;15.00;99.90;;;;;;6188656;23;20039;-88
2022/07/23 06:55:24;;;;;;;3.33;2.60;;;15.00;99.90;;;;;;6188923;23;20051;-87
2022/07/23 06:57:49;;;;;;;3.55;2.35;;;15.10;99.90;;;;;;6214180;23;20095;-87
2022/07/23 07:00:15;;;;;;;3.55;2.03;;;15.10;99.90;;;;;;6188769;23;20536;-88
2022/07/23 07:02:41;;;;;;;6.18;2.10;;;15.20;99.90;;;;;;6188936;23;20047;-87
2022/07/23 07:05:07;;;;;;;6.90;2.22;;;15.20;99.90;;;;;;6212116;23;20013;-87
2022/07/23 07:07:34;;;;;;;4.43;1.85;;;15.20;99.90;;;;;;6187036;23;20513;-85
2022/07/23 07:09:59;;;;;;;4.80;2.03;;;15.20;99.90;;;;;;6188267;23;20016;-85
2022/07/23 07:12:25;;;;;;;2.58;2.17;;;15.30;99.90;;;;;;6189186;23;20017;-85
2022/07/23 07:14:51;;;;;;;2.58;1.75;;;15.40;99.90;;;;;;6188326;23;20012;-85
2022/07/23 07:17:16;;;;;;;2.67;1.90;;;15.40;99.90;;;;;;6188624;23;20017;-85
2022/07/23 07:19:42;;;;;;;3.40;1.65;;;15.40;99.90;;;;;;6187444;23;20016;-86
2022/07/23 07:22:07;;;;;;;2.92;1.80;;;15.50;99.90;;;;;;6188502;23;20008;-86
2022/07/23 07:24:33;;;;;;;3.30;2.05;;;15.50;99.90;;;;;;6188579;23;20020;-85
2022/07/23 07:26:59;;;;;;;4.10;2.10;;;15.70;99.90;;;;;;6188196;23;20479;-85
2022/07/23 07:29:24;;;;;;;4.22;2.13;;;15.70;99.90;;;;;;6188127;23;20040;-85
2022/07/23 07:31:50;;;;;;;4.30;2.00;;;15.80;99.90;;;;;;6187901;23;20083;-84
2022/07/23 07:34:15;;;;;;;4.38;1.95;;;15.80;99.90;;;;;;6188282;23;20017;-85
2022/07/23 07:36:42;;;;;;;2.63;1.63;;;16.00;99.90;;;;;;6188090;23;20012;-85
2022/07/23 07:39:10;;;;;;;6.22;2.10;;;16.10;99.90;;;;;;6187869;23;20016;-85
2022/07/23 07:45:58;;;;;;;3.33;2.35;;;16.50;99.90;;;;;;6093357;23;20017;-84
2022/07/23 07:48:51;;;;;;;1.83;1.40;;;16.80;99.90;;;;;;6115106;23;20363;-84
2022/07/23 07:51:17;;;;;;;2.67;1.48;;;17.00;99.90;;;;;;6185813;23;20016;-84
2022/07/23 07:53:42;;;;;;;2.75;1.70;;;17.30;99.90;;;;;;6187637;23;20014;-85
2022/07/23 07:56:08;;;;;;;3.55;1.83;;;17.50;99.90;;;;;;6212367;23;20051;-84
2022/07/23 07:58:34;;;;;;;2.83;1.63;;;17.60;99.90;;;;;;6187107;23;20052;-84
2022/07/23 08:01:00;;;;;;;3.35;1.45;;;17.70;99.90;;;;;;6186909;23;20062;-84
2022/07/23 08:03:26;;;;;;;5.07;1.40;;;17.90;99.90;;;;;;6213060;23;20008;-84
2022/07/23 08:05:51;;;;;;;1.60;1.30;;;18.20;99.90;;;;;;6186044;23;20079;-84
2022/07/23 08:08:17;;;;;;;1.20;0.90;;;18.50;99.90;;;;;;6185201;23;20012;-85
2022/07/23 08:10:43;;;;;;;2.70;0.90;;;18.90;99.90;;;;;;6186967;23;20391;-84
2022/07/23 08:13:14;;;;;;;3.25;0.88;;;18.90;99.90;;;;;;6213062;23;20089;-85
2022/07/23 08:15:40;;;;;;;1.00;0.90;;;18.70;99.90;;;;;;6187766;23;20356;-84
2022/07/23 08:18:05;;;;;;;1.85;0.80;;;18.90;99.90;;;;;;6212723;23;20016;-85
2022/07/23 08:20:31;;;;;;;1.10;0.80;;;19.50;99.90;;;;;;6187092;23;20019;-85
2022/07/23 08:23:00;;;;;;;2.55;0.75;;;20.20;99.90;;;;;;6188118;23;20542;-84
2022/07/23 08:25:37;;;;;;;1.23;0.88;;;20.50;99.90;;;;;;6187714;23;20500;-84
2022/07/23 08:28:05;;;;;;;1.88;1.00;;;20.40;99.90;;;;;;6212207;23;20018;-84
2022/07/23 09:04:10;;;;;;;0.90;0.70;;;19.70;99.90;;;;;;6233892;22;20023;-84
2022/07/23 09:06:38;;;;;;;2.05;0.90;;;19.50;99.90;;;;;;6217773;23;20347;-84
2022/07/23 09:09:20;;;;;;;1.10;0.75;;;19.40;99.90;;;;;;6242690;23;20008;-84
2022/07/23 09:11:47;;;;;;;0.80;0.70;;;19.30;99.90;;;;;;6242555;23;20020;-84
2022/07/23 09:14:13;;;;;;;0.80;0.60;;;19.20;99.90;;;;;;6191334;23;20017;-84
2022/07/23 09:16:38;;;;;;;2.72;0.85;;;19.20;99.90;;;;;;6188131;23;20471;-85
2022/07/23 09:19:06;;;;;;;1.45;0.80;;;19.90;99.90;;;;;;6187663;23;20070;-85
2022/07/23 09:21:37;;;;;;;0.80;0.50;;;20.90;99.90;;;;;;6187589;23;20100;-84
2022/07/23 09:24:06;;;;;;;1.95;0.70;;;21.90;99.90;;;;;;6187234;23;20005;-85
2022/07/23 09:26:44;;;;;;;1.88;0.70;;;22.40;99.90;;;;;;6187546;23;20399;-85
2022/07/23 09:29:16;;;;;;;0.65;0.60;;;22.50;99.90;;;;;;6211367;23;20019;-85
2022/07/23 09:31:47;;;;;;;1.35;0.73;;;22.30;99.90;;;;;;6212100;23;20352;-85
2022/07/23 09:34:15;;;;;;;1.17;0.70;;;22.10;99.90;;;;;;6211886;23;20094;-85
2022/07/23 09:36:41;;;;;;;2.70;0.73;;;21.90;99.90;;;;;;6211596;23;20024;-84
2022/07/23 09:39:07;;;;;;;1.33;0.80;;;21.70;99.90;;;;;;6187437;23;20013;-85
2022/07/23 09:41:45;;;;;;;1.10;0.75;;;21.60;99.90;;;;;;6187540;23;20023;-85
2022/07/23 09:44:20;;;;;;;0.88;0.65;;;22.00;99.90;;;;;;6187651;23;20005;-85
2022/07/23 09:46:56;;;;;;;2.78;0.68;;;22.60;99.90;;;;;;6212514;23;20099;-85
2022/07/23 09:49:23;;;;;;;4.80;0.88;;;23.10;99.90;;;;;;6187229;23;20043;-85
2022/07/23 09:51:51;;;;;;;0.98;0.63;;;23.30;99.90;;;;;;6187356;23;20023;-85
2022/07/23 09:54:30;;;;;;;0.77;0.50;;;23.40;99.90;;;;;;6187462;23;20017;-85
2022/07/23 09:56:57;;;;;;;1.55;0.73;;;23.50;99.90;;;;;;6187332;23;20524;-84
2022/07/23 09:59:29;;;;;;;0.60;0.55;;;23.70;99.90;;;;;;6187535;23;20083;-85
2022/07/23 10:01:58;;;;;;;4.20;0.60;;;24.00;99.90;;;;;;6187437;23;20098;-85
2022/07/23 10:04:26;;;;;;;1.70;0.63;;;24.40;99.90;;;;;;6186340;23;20019;-84
2022/07/23 10:06:54;;;;;;;1.15;0.60;;;24.70;99.90;;;;;;6212283;23;20468;-85
2022/07/23 10:09:26;;;;;;;1.48;0.93;;;25.10;99.90;;;;;;6185296;23;20013;-86
2022/07/23 10:11:57;;;;;;;0.45;0.43;;;25.40;99.90;;;;;;6186588;23;20453;-88
2022/07/23 10:14:24;;;;;;;0.60;0.60;;;25.70;99.90;;;;;;6186421;23;20100;-87
2022/07/23 10:16:53;;;;;;;1.02;0.50;;;25.90;99.90;;;;;;6187122;23;20016;-89
2022/07/23 10:19:19;;;;;;;1.00;0.70;;;26.10;99.90;;;;;;6186794;23;20019;-88
2022/07/23 10:21:57;;;;;;;1.40;0.68;;;26.30;99.90;;;;;;6188131;23;20092;-88
2022/07/23 10:24:48;;;;;;;0.98;0.70;;;26.50;99.90;;;;;;6189284;23;20008;-86
2022/07/23 10:27:36;;;;;;;0.73;0.50;;;26.30;99.90;;;;;;6188598;23;20082;-88
2022/07/23 10:30:16;;;;;;;0.85;0.85;;;26.00;99.90;;;;;;6189391;23;20395;-85
2022/07/23 10:33:04;;;;;;;0.70;0.70;;;26.20;99.90;;;;;;6188778;23;20020;-85
2022/07/23 10:35:47;;;;;;;1.08;0.70;;;26.30;99.90;;;;;;6120755;23;20100;-85
2022/07/23 10:38:25;;;;;;;4.10;0.98;;;26.20;99.90;;;;;;6187191;23;20055;-85
2022/07/23 10:40:56;;;;;;;2.63;0.70;;;26.30;99.90;;;;;;6188745;23;20016;-84
2022/07/23 10:43:22;;;;;;;4.63;1.13;;;26.50;99.90;;;;;;6214172;23;20005;-88
2022/07/23 10:45:49;;;;;;;0.90;0.70;;;26.70;99.90;;;;;;6188052;23;20009;-88
2022/07/23 10:48:17;;;;;;;1.13;0.70;;;27.00;99.90;;;;;;6211740;23;20012;-87
2022/07/23 10:50:44;;;;;;;0.75;0.73;;;27.40;99.90;;;;;;6188258;23;20083;-89
2022/07/23 10:53:15;;;;;;;1.27;0.70;;;27.60;99.90;;;;;;6188274;23;20330;-88
2022/07/23 10:55:54;;;;;;;1.05;0.77;;;27.40;91.90;;;;;;6189268;23;20018;-87
2022/07/23 10:58:23;;;;;;;1.63;0.70;;;26.90;90.20;;;;;;6211406;23;20035;-87
2022/07/23 11:00:49;;;;;;;0.85;0.80;;;26.60;92.70;;;;;;6188547;23;20020;-87
2022/07/23 11:03:36;;;;;;;0.98;0.65;;;26.50;93.40;;;;;;6188654;23;20009;-87
2022/07/23 11:06:02;;;;;;;1.45;0.85;;;26.50;87.80;;;;;;6189064;23;20043;-88
2022/07/23 11:08:27;;;;;;;1.08;0.80;;;26.40;90.60;;;;;;6187613;23;20040;-88
2022/07/23 11:11:01;;;;;;;1.67;0.90;;;26.30;91.30;;;;;;6188395;23;20735;-88
2022/07/23 11:13:37;;;;;;;1.27;1.02;;;26.20;90.50;;;;;;6213332;23;20400;-87
2022/07/23 11:16:10;;;;;;;1.20;0.70;;;26.50;91.20;;;;;;6186920;23;20456;-87
2022/07/23 11:18:39;;;;;;;;;;;26.70;92.30;;;;;;6188947;23;20036;-87
2022/07/23 11:21:29;;;;;;;1.20;0.88;;;26.90;78.40;;;;;;6188213;23;19946;-87
2022/07/23 11:24:03;;;;;;;1.23;1.00;;;27.30;88.90;;;;;;6187536;23;20376;-87
2022/07/23 11:26:43;;;;;;;1.50;1.10;;;27.50;90.90;;;;;;6187700;23;20036;-87
2022/07/23 11:29:36;;;;;;;1.67;0.93;;;27.60;83.20;;;;;;6188444;23;20020;-88
2022/07/23 11:32:03;;;;;;;;;;;27.50;81.00;;;;;;6213199;23;20020;-88
2022/07/23 11:34:40;;;;;;;1.25;0.95;;;27.50;75.20;;;;;;6186343;23;19930;-88
2022/07/23 11:37:11;;;;;;;1.65;0.95;;;27.60;86.80;;;;;;6187841;23;20012;-86
2022/07/23 11:39:38;;;;;;;2.78;1.02;;;27.60;86.60;;;;;;6188472;23;20399;-88
2022/07/23 11:42:06;;;;;;;1.63;1.08;;;27.70;86.30;;;;;;6212178;23;20051;-87
2022/07/23 11:44:37;;;;;;;2.10;1.08;;;27.80;84.20;;;;;;6187964;23;20012;-88
2022/07/23 11:47:11;;;;;;;1.20;0.98;;;27.70;80.20;;;;;;6212617;23;20087;-88
2022/07/23 11:49:37;;;;;;;1.90;1.02;;;27.30;79.20;;;;;;6187488;23;20084;-86
2022/07/23 11:52:13;;;;;;;2.80;1.33;;;27.00;79.50;;;;;;6187901;23;20047;-87
2022/07/23 11:54:51;;;;;;;1.63;1.00;;;26.60;79.20;;;;;;6188497;23;20058;-86
2022/07/23 11:57:19;;;;;;;1.70;1.00;;;26.20;78.40;;;;;;6212866;23;20023;-86
2022/07/23 11:59:49;;;;;;;1.17;0.98;;;25.80;79.20;;;;;;6188368;23;20135;-88
2022/07/23 12:02:15;;;;;;;1.70;1.10;;;25.60;80.70;;;;;;6187545;23;20044;-86
2022/07/23 12:04:45;;;;;;;1.20;1.10;;;25.40;79.80;;;;;;6213418;23;20062;-88
2022/07/23 12:07:32;;;;;;;1.42;1.00;;;25.50;82.60;;;;;;6188105;23;20392;-87
2022/07/23 12:10:00;;;;;;;1.02;0.90;;;25.80;82.30;;;;;;6186580;23;20015;-90
2022/07/23 12:12:26;;;;;;;1.27;0.90;;;26.20;83.40;;;;;;6188142;23;20012;-86
2022/07/23 12:14:55;;;;;;;1.58;0.90;;;26.50;85.90;;;;;;6186957;23;20016;-87
2022/07/23 12:17:21;;;;;;;1.70;0.90;;;26.70;86.80;;;;;;6187118;23;20527;-87
2022/07/23 12:19:48;;;;;;;1.05;0.80;;;26.90;85.20;;;;;;6188260;23;20397;-84
2022/07/23 12:22:14;;;;;;;2.35;1.08;;;26.90;83.80;;;;;;6188118;23;20020;-84
2022/07/23 12:25:04;;;;;;;1.23;0.80;;;26.90;81.60;;;;;;6187623;23;20013;-84
2022/07/23 12:27:30;;;;;;;2.17;1.05;;;26.90;77.20;;;;;;6212464;23;20032;-85
2022/07/23 12:29:55;;;;;;;1.42;0.90;;;27.00;81.20;;;;;;6211481;23;20005;-85
2022/07/23 12:32:28;;;;;;;1.20;0.90;;;27.20;82.40;;;;;;6186438;23;20019;-89
2022/07/23 12:35:06;;;;;;;1.00;0.85;;;27.30;80.80;;;;;;6188018;23;20012;-89
2022/07/23 12:37:38;;;;;;;1.95;1.10;;;27.30;77.70;;;;;;6187311;23;20024;-90
2022/07/23 12:40:43;;;;;;;1.45;1.00;;;27.30;78.70;;;;;;6187865;23;20409;-89
2022/07/23 12:43:21;;;;;;;1.75;1.10;;;27.30;75.00;;;;;;6044566;23;20022;-89
2022/07/23 12:45:51;;;;;;;2.70;1.08;;;26.90;77.20;;;;;;6199498;23;20515;-89
2022/07/23 12:48:29;;;;;;;2.22;1.13;;;26.60;79.80;;;;;;6187303;23;20059;-89
2022/07/23 12:51:08;;;;;;;1.45;0.98;;;26.60;79.10;;;;;;6187943;23;20055;-87
2022/07/23 12:53:40;;;;;;;1.88;1.00;;;27.00;79.70;;;;;;6187309;23;20055;-89
2022/07/23 12:56:11;;;;;;;1.42;1.08;;;27.30;81.40;;;;;;6187066;23;20412;-88
2022/07/23 12:59:03;;;;;;;1.67;1.08;;;27.40;80.10;;;;;;6212221;23;20012;-88
2022/07/23 13:01:31;;;;;;;1.33;0.80;;;27.00;76.40;;;;;;6180355;23;20095;-87
2022/07/23 13:04:01;;;;;;;1.40;1.00;;;26.60;80.00;;;;;;6191673;23;20083;-87
2022/07/23 13:06:35;;;;;;;1.98;1.00;;;26.30;80.50;;;;;;6192807;23;20012;-88
2022/07/23 13:09:03;;;;;;;1.23;0.98;;;26.30;79.90;;;;;;6192306;23;20008;-87
2022/07/23 13:11:28;;;;;;;1.40;1.10;;;26.70;80.90;;;;;;6192261;23;20012;-89
2022/07/23 13:13:54;;;;;;;1.42;1.30;;;27.30;81.30;;;;;;6192660;23;20008;-87
2022/07/23 13:16:20;;;;;;;1.80;0.95;;;27.70;81.50;;;;;;6217412;23;20073;-88
2022/07/23 13:18:45;;;;;;;1.63;0.88;;;27.80;79.30;;;;;;6216731;23;20027;-89
2022/07/23 13:21:11;;;;;;;2.13;1.02;;;27.80;78.20;;;;;;6191016;23;20016;-86
2022/07/23 13:23:37;;;;;;;1.15;0.80;;;27.60;78.30;;;;;;6192196;23;20325;-89
2022/07/23 13:26:03;;;;;;;3.25;0.90;;;27.60;78.70;;;;;;6192200;23;20012;-87
2022/07/23 13:28:29;;;;;;;1.85;1.00;;;27.50;78.00;;;;;;6217340;23;20004;-86
2022/07/23 13:30:56;;;;;;;2.05;1.10;;;27.40;79.10;;;;;;6191208;23;20014;-86
2022/07/23 13:33:24;;;;;;;1.05;0.90;;;27.40;79.30;;;;;;6192019;23;20348;-83
2022/07/23 13:35:51;;;;;;;1.08;0.90;;;27.50;79.60;;;;;;6216997;23;20015;-83
2022/07/23 13:38:18;;;;;;;2.10;0.93;;;27.70;78.70;;;;;;6191850;23;20490;-86
2022/07/23 13:40:47;;;;;;;1.25;1.15;;;27.90;79.40;;;;;;6191985;23;20456;-84
2022/07/23 13:43:15;;;;;;;1.60;1.33;;;28.10;79.90;;;;;;6192133;23;20020;-84
2022/07/23 13:45:44;;;;;;;2.03;1.00;;;28.30;79.20;;;;;;6215643;23;20013;-84
2022/07/23 13:48:11;;;;;;;1.42;0.70;;;28.40;77.70;;;;;;6215873;23;20012;-87
2022/07/23 13:50:38;;;;;;;1.42;0.85;;;28.60;78.30;;;;;;6191777;23;20020;-86
2022/07/23 13:53:10;;;;;;;1.27;0.93;;;28.70;79.10;;;;;;6192414;23;20165;-85
2022/07/23 13:55:37;;;;;;;1.00;0.87;;;28.90;76.90;;;;;;6192499;23;20012;-86
2022/07/23 13:58:03;;;;;;;0.88;0.88;;;29.00;77.00;;;;;;6193843;23;20012;-85
2022/07/23 14:00:30;;;;;;;1.17;0.85;;;29.10;77.40;;;;;;6194058;23;20069;-85
2022/07/23 14:02:57;;;;;;;2.63;1.05;;;29.20;76.50;;;;;;6219192;23;20054;-86
2022/07/23 14:05:22;;;;;;;1.40;0.82;;;29.30;75.20;;;;;;6194361;23;20004;-86
2022/07/23 14:07:51;;;;;;;0.80;0.80;;;29.30;74.80;;;;;;6194351;23;20008;-86
2022/07/23 14:10:18;;;;;;;1.92;0.88;;;29.20;76.20;;;;;;6194378;23;20395;-86
2022/07/23 14:12:45;;;;;;;1.40;0.80;;;29.20;74.60;;;;;;6193797;23;20330;-86
2022/07/23 14:15:11;;;;;;;1.27;1.10;;;29.20;73.80;;;;;;6193778;23;20023;-86
2022/07/23 14:17:40;;;;;;;1.85;0.80;;;29.20;74.70;;;;;;6193892;23;20013;-85
2022/07/23 14:20:07;;;;;;;1.63;1.20;;;29.40;74.40;;;;;;6193610;23;20083;-86
2022/07/23 14:22:33;;;;;;;1.45;0.90;;;29.40;74.70;;;;;;6193187;23;20066;-85
2022/07/23 14:24:59;;;;;;;1.02;0.90;;;29.50;73.00;;;;;;6192459;23;20560;-86
2022/07/23 14:27:26;;;;;;;1.45;0.90;;;29.30;70.90;;;;;;6193558;23;20317;-85
2022/07/23 14:29:52;;;;;;;1.48;1.10;;;29.00;71.40;;;;;;6194003;23;20210;-86
2022/07/23 14:32:18;;;;;;;2.15;0.93;;;28.90;72.50;;;;;;6193118;22;20046;-86
2022/07/23 14:34:44;;;;;;;0.85;0.80;;;28.90;73.40;;;;;;6193565;23;20012;-85
2022/07/23 14:37:11;;;;;;;0.80;0.80;;;29.00;73.50;;;;;;6192867;23;20019;-83
2022/07/23 14:39:38;;;;;;;1.95;1.20;;;28.90;72.90;;;;;;6193176;23;20012;-85
2022/07/23 14:42:04;;;;;;;1.10;1.00;;;29.00;72.80;;;;;;6192730;23;20015;-85
2022/07/23 14:44:30;;;;;;;1.20;1.10;;;29.00;72.70;;;;;;6193051;23;20010;-86
2022/07/23 14:46:56;;;;;;;1.52;1.23;;;28.70;71.10;;;;;;6193885;23;20039;-86
2022/07/23 14:49:22;;;;;;;1.42;1.00;;;28.20;71.30;;;;;;6193388;23;20016;-86
2022/07/23 14:51:47;;;;;;;1.38;1.13;;;27.60;72.10;;;;;;6193417;23;20015;-86
2022/07/23 14:54:13;;;;;;;1.67;1.30;;;27.20;73.60;;;;;;6193450;23;20020;-86
2022/07/23 14:56:41;;;;;;;2.13;1.20;;;27.30;74.30;;;;;;6194065;23;20012;-86
2022/07/23 14:59:07;;;;;;;1.38;1.20;;;27.40;74.10;;;;;;6192612;23;20019;-86
2022/07/23 15:01:32;;;;;;;2.60;1.40;;;27.50;73.90;;;;;;6191587;23;20015;-86
2022/07/23 15:03:58;;;;;;;0.93;0.93;;;27.50;72.80;;;;;;6191758;23;20004;-87
2022/07/23 15:06:24;;;;;;;1.70;0.90;;;27.40;73.50;;;;;;6218531;23;20015;-87
2022/07/23 15:08:50;;;;;;;1.20;1.05;;;27.20;73.70;;;;;;6192102;23;20093;-87
2022/07/23 15:11:15;;;;;;;1.65;1.20;;;27.00;73.40;;;;;;6193437;23;20087;-86
2022/07/23 15:13:41;;;;;;;2.10;1.15;;;26.80;74.30;;;;;;6192704;23;20090;-87
2022/07/23 15:16:08;;;;;;;1.48;0.93;;;26.60;74.10;;;;;;6219056;23;20047;-87
2022/07/23 15:18:34;;;;;;;1.35;1.10;;;26.30;74.50;;;;;;6218602;23;20008;-86
2022/07/23 15:21:00;;;;;;;5.20;1.33;;;26.00;75.90;;;;;;6193597;23;20011;-87
2022/07/23 15:23:26;;;;;;;1.50;1.20;;;25.70;76.10;;;;;;6192191;23;20058;-86
2022/07/23 15:25:54;;;;;;;1.20;1.10;;;25.50;76.30;;;;;;6193194;23;20012;-87
2022/07/23 15:28:20;;;;;;;1.42;1.10;;;25.20;76.70;;;;;;6193421;23;20009;-87
2022/07/23 15:30:46;;;;;;;1.52;1.20;;;24.90;76.80;;;;;;6193063;23;20460;-86
2022/07/23 15:33:11;;;;;;;1.65;1.33;;;24.70;76.50;;;;;;6217234;23;20034;-87